EGNR/CEG METAR and TAF weather

Enter ICAO airport designator
Station Type Date Time Source
EGNR METAR 2021/10/22 18:20 UTC NOAA

EGNR 221820Z VRB02KT 9999 SCT029 BKN046 11/07 Q1023


Station Type Date Time Source
EGNR Decoded METAR 2021/10/22 18:20 UTC NOAA

Hawarden, United Kingdom (EGNR) 53-10N 002-59W 0M
Oct 22, 2021 - 02:20 PM EDT / 2021.10.22 1820 UTC
Wind: Variable at 2 MPH (2 KT):0
Visibility: greater than 7 mile(s):0
Sky conditions: mostly cloudy
Temperature: 51 F (11 C)
Dew Point: 44 F (7 C)
Relative Humidity: 76%
Pressure (altimeter): 30.21 in. Hg (1023 hPa)
ob: EGNR 221820Z VRB02KT 9999 SCT029 BKN046 11/07 Q1023
cycle: 18

Station Type Date Time Source
EGNR TAF 2016/01/23 12:00 UTC NOAA

TAF EGNR 231059Z 2312/2319 15009KT 9999 FEW020
BECMG 2316/2319 BKN014
TEMPO 2317/2319 6000 RA BKN008

Example: see airport list